createdAt,value
2022-10-27T00:01:55.534Z,35.70
2022-10-27T00:04:27.561Z,33.15
2022-10-27T00:06:59.503Z,36.08
2022-10-27T00:09:31.528Z,32.28
2022-10-27T00:12:04.172Z,34.65
2022-10-27T00:14:36.275Z,34.65
2022-10-27T00:17:08.321Z,41.63
2022-10-27T00:19:40.250Z,38.15
2022-10-27T00:22:12.223Z,40.13
2022-10-27T00:24:44.130Z,42.45
2022-10-27T00:27:16.175Z,40.75
2022-10-27T00:29:48.080Z,44.45
2022-10-27T00:32:19.958Z,35.08
2022-10-27T00:34:51.822Z,32.75
2022-10-27T00:37:23.739Z,33.30
2022-10-27T00:39:55.659Z,30.80
2022-10-27T00:42:27.629Z,32.42
2022-10-27T00:44:59.575Z,35.33
2022-10-27T00:47:37.286Z,36.10
2022-10-27T00:50:13.279Z,30.58
2022-10-27T00:52:51.725Z,34.85
2022-10-27T00:55:34.567Z,35.08
2022-10-27T00:58:14.675Z,35.72
2022-10-27T01:00:46.696Z,35.10
2022-10-27T01:03:22.315Z,34.90
2022-10-27T01:05:57.074Z,31.98
2022-10-27T01:08:29.225Z,30.95
2022-10-27T01:11:01.292Z,31.83
2022-10-27T01:13:33.310Z,34.28
2022-10-27T01:16:26.436Z,30.13
2022-10-27T01:19:28.783Z,35.25
2022-10-27T01:22:15.662Z,34.75
2022-10-27T01:25:35.871Z,34.55
2022-10-27T01:28:22.659Z,31.52
2022-10-27T01:30:54.472Z,38.47
2022-10-27T01:33:38.318Z,33.17
2022-10-27T01:36:19.188Z,31.58
2022-10-27T01:39:40.219Z,39.58
2022-10-27T01:42:20.772Z,36.33
2022-10-27T01:44:56.525Z,38.88
2022-10-27T01:47:29.987Z,35.50
2022-10-27T01:50:02.212Z,42.58
2022-10-27T01:52:49.005Z,37.63
2022-10-27T01:55:27.145Z,35.53
2022-10-27T01:58:21.598Z,40.58
2022-10-27T02:01:18.794Z,39.28
2022-10-27T02:03:53.550Z,41.38
2022-10-27T02:06:50.542Z,36.28
2022-10-27T02:09:46.695Z,37.17
2022-10-27T02:12:27.014Z,35.10
2022-10-27T02:15:01.816Z,33.83
2022-10-27T02:17:43.017Z,34.13
2022-10-27T02:20:29.507Z,34.15
2022-10-27T02:23:07.375Z,33.35
2022-10-27T02:25:53.955Z,32.22
2022-10-27T02:28:34.027Z,35.20
2022-10-27T02:31:08.115Z,33.28
2022-10-27T02:33:40.451Z,34.58
2022-10-27T02:36:12.339Z,30.98
2022-10-27T02:38:44.235Z,33.92
2022-10-27T02:41:16.167Z,30.92
2022-10-27T02:43:48.096Z,31.05
2022-10-27T02:46:20.061Z,35.00
2022-10-27T02:48:51.934Z,29.83
2022-10-27T02:51:23.838Z,29.73
2022-10-27T02:53:55.778Z,28.85
2022-10-27T02:56:27.695Z,31.60
2022-10-27T02:58:59.568Z,28.85
2022-10-27T03:01:31.543Z,28.13
2022-10-27T03:04:03.681Z,30.67
2022-10-27T03:06:35.634Z,28.80
2022-10-27T03:09:07.726Z,25.02
2022-10-27T03:11:41.556Z,33.92
2022-10-27T03:14:16.022Z,29.15
2022-10-27T03:16:47.900Z,29.42
2022-10-27T03:19:19.900Z,26.27
2022-10-27T03:21:51.748Z,32.90
2022-10-27T03:24:23.591Z,28.05
2022-10-27T03:26:55.527Z,27.98
2022-10-27T03:29:27.529Z,25.90
2022-10-27T03:31:59.380Z,26.20
2022-10-27T03:34:31.198Z,27.08
2022-10-27T03:37:03.069Z,24.95
2022-10-27T03:39:35.018Z,37.50
2022-10-27T03:42:07.182Z,25.77
2022-10-27T03:44:39.146Z,22.08
2022-10-27T03:47:11.013Z,24.63
2022-10-27T03:49:42.923Z,25.73
2022-10-27T03:52:15.103Z,22.65
2022-10-27T03:54:47.007Z,25.15
2022-10-27T03:57:18.938Z,18.58
2022-10-27T03:59:50.833Z,25.50
2022-10-27T04:02:22.823Z,29.50
2022-10-27T04:04:57.555Z,23.45
2022-10-27T04:07:29.437Z,24.60
2022-10-27T04:10:01.321Z,28.17
2022-10-27T04:12:33.229Z,22.67
2022-10-27T04:15:06.052Z,27.88
2022-10-27T04:17:37.947Z,25.05
2022-10-27T04:20:10.764Z,25.85
2022-10-27T04:22:42.643Z,26.88
2022-10-27T04:25:14.821Z,27.23
2022-10-27T04:27:46.734Z,26.00
2022-10-27T04:30:18.657Z,25.48
2022-10-27T04:32:53.373Z,25.83
2022-10-27T04:35:25.673Z,53.63
2022-10-27T04:37:57.950Z,23.63
2022-10-27T04:40:29.866Z,20.92
2022-10-27T04:43:01.910Z,23.15
2022-10-27T04:45:34.699Z,25.08
2022-10-27T04:48:06.766Z,20.25
2022-10-27T04:50:38.779Z,20.15
2022-10-27T04:53:10.831Z,19.83
2022-10-27T04:55:42.876Z,21.75
2022-10-27T04:58:14.766Z,21.73
2022-10-27T05:00:47.583Z,20.67
2022-10-27T05:03:20.058Z,24.27
2022-10-27T05:05:51.880Z,20.95
2022-10-27T05:08:23.706Z,19.80
2022-10-27T05:10:55.786Z,21.50
2022-10-27T05:13:27.674Z,19.42
2022-10-27T05:16:03.913Z,19.67
2022-10-27T05:18:35.852Z,18.80
2022-10-27T05:21:07.762Z,17.02
2022-10-27T05:23:42.004Z,15.70
2022-10-27T05:26:17.037Z,23.67
2022-10-27T05:28:48.991Z,21.33
2022-10-27T05:31:20.869Z,19.40
2022-10-27T05:33:52.792Z,19.88
2022-10-27T05:36:24.816Z,24.15
2022-10-27T05:38:56.655Z,22.50
2022-10-27T05:41:28.565Z,26.65
2022-10-27T05:44:00.566Z,25.05
2022-10-27T05:46:32.556Z,32.63
2022-10-27T05:49:04.441Z,18.42
2022-10-27T05:51:36.287Z,20.02
2022-10-27T05:54:08.283Z,20.52
2022-10-27T05:56:40.182Z,18.95
2022-10-27T05:59:12.538Z,21.13
2022-10-27T06:01:44.452Z,17.92
2022-10-27T06:04:16.401Z,22.70
2022-10-27T06:06:48.272Z,24.88
2022-10-27T06:09:20.133Z,28.55
2022-10-27T06:11:52.036Z,21.80
2022-10-27T06:14:26.830Z,24.85
2022-10-27T06:17:01.507Z,25.80
2022-10-27T06:19:33.423Z,18.25
2022-10-27T06:22:05.334Z,25.90
2022-10-27T06:24:37.162Z,20.80
2022-10-27T06:27:09.059Z,25.70
2022-10-27T06:29:40.968Z,23.80
2022-10-27T06:32:12.883Z,19.27
2022-10-27T06:34:44.800Z,19.75
2022-10-27T06:37:16.857Z,17.20
2022-10-27T06:39:48.778Z,26.00
2022-10-27T06:42:22.248Z,22.17
2022-10-27T06:44:55.970Z,25.00
2022-10-27T06:47:27.884Z,24.33
2022-10-27T06:50:00.175Z,24.38
2022-10-27T06:52:35.352Z,25.60
2022-10-27T06:55:08.712Z,26.85
2022-10-27T06:57:41.701Z,22.63
2022-10-27T07:00:14.630Z,21.52
2022-10-27T07:02:47.060Z,23.13
2022-10-27T07:05:19.801Z,27.40
2022-10-27T07:07:53.341Z,20.38
2022-10-27T07:10:25.611Z,19.00
2022-10-27T07:12:58.488Z,16.17
2022-10-27T07:15:33.159Z,24.73
2022-10-27T07:18:08.328Z,20.25
2022-10-27T07:20:40.566Z,18.05
2022-10-27T07:23:12.975Z,17.73
2022-10-27T07:25:49.025Z,15.85
2022-10-27T07:28:20.860Z,18.33
2022-10-27T07:30:55.487Z,14.85
2022-10-27T07:33:27.391Z,14.15
2022-10-27T07:35:59.287Z,18.42
2022-10-27T07:38:31.295Z,18.92
2022-10-27T07:41:03.142Z,13.63
2022-10-27T07:43:37.080Z,16.20
2022-10-27T07:46:09.339Z,17.63
2022-10-27T07:48:41.198Z,15.85
2022-10-27T07:51:13.082Z,11.95
2022-10-27T07:53:44.888Z,18.73
2022-10-27T07:56:19.787Z,21.33
2022-10-27T07:58:51.732Z,20.55
2022-10-27T08:01:23.777Z,17.23
2022-10-27T08:03:55.763Z,18.20
2022-10-27T08:06:27.656Z,18.70
2022-10-27T08:08:59.539Z,16.77
2022-10-27T08:11:31.542Z,26.02
2022-10-27T08:14:03.530Z,18.70
2022-10-27T08:16:35.401Z,25.48
2022-10-27T08:19:07.367Z,21.85
2022-10-27T08:21:39.225Z,19.25
2022-10-27T08:24:11.144Z,19.02
2022-10-27T08:26:43.074Z,19.23
2022-10-27T08:29:15.077Z,20.73
2022-10-27T08:31:46.975Z,33.03
2022-10-27T08:34:19.151Z,26.15
2022-10-27T08:36:51.045Z,24.17
2022-10-27T08:39:22.969Z,29.08
2022-10-27T08:42:07.561Z,24.90
2022-10-27T08:44:50.734Z,24.45
2022-10-27T08:47:29.013Z,28.38
2022-10-27T08:50:05.301Z,30.15
2022-10-27T08:52:45.657Z,30.40
2022-10-27T08:55:25.875Z,27.35
2022-10-27T08:58:06.785Z,30.30
2022-10-27T09:04:04.443Z,34.20
2022-10-27T09:06:41.768Z,32.40
2022-10-27T09:09:36.623Z,40.25
2022-10-27T09:12:26.032Z,34.90
2022-10-27T09:15:28.766Z,43.92
2022-10-27T09:18:28.346Z,38.63
2022-10-27T09:21:05.616Z,38.45
2022-10-27T09:23:45.263Z,41.40
2022-10-27T09:26:21.167Z,45.13
2022-10-27T09:28:54.956Z,45.38
2022-10-27T09:31:40.885Z,45.45
2022-10-27T09:34:25.222Z,40.38
2022-10-27T09:36:57.494Z,45.67
2022-10-27T09:39:29.414Z,55.78
2022-10-27T09:42:01.299Z,39.95
2022-10-27T09:44:34.542Z,37.55
2022-10-27T09:47:06.426Z,41.22
2022-10-27T09:49:41.799Z,40.65
2022-10-27T09:52:20.298Z,38.95
2022-10-27T09:54:57.183Z,39.30
2022-10-27T09:57:34.135Z,41.25
2022-10-27T10:00:17.242Z,34.03
2022-10-27T10:03:17.295Z,37.75
2022-10-27T10:06:25.963Z,40.33
2022-10-27T10:09:17.318Z,42.65
2022-10-27T10:11:49.723Z,43.50
2022-10-27T10:14:24.291Z,44.20
2022-10-27T10:16:57.701Z,33.10
2022-10-27T10:19:29.914Z,36.00
2022-10-27T10:22:01.918Z,34.97
2022-10-27T10:24:36.474Z,36.20
2022-10-27T10:27:21.739Z,38.00
2022-10-27T10:29:54.797Z,35.55
2022-10-27T10:32:31.217Z,32.22
2022-10-27T10:35:23.461Z,30.95
2022-10-27T10:37:55.744Z,32.35
2022-10-27T10:40:29.268Z,37.40
2022-10-27T10:43:12.042Z,36.10
2022-10-27T10:45:52.695Z,34.72
2022-10-27T10:51:04.475Z,48.05
2022-10-27T10:53:56.723Z,41.90
2022-10-27T10:56:31.562Z,36.13
2022-10-27T10:59:16.869Z,33.58
2022-10-27T11:01:52.920Z,36.60
2022-10-27T11:04:31.703Z,35.22
2022-10-27T11:07:17.291Z,39.90
2022-10-27T11:10:07.338Z,40.13
2022-10-27T11:13:12.019Z,33.60
2022-10-27T11:15:50.886Z,39.20
2022-10-27T11:18:37.024Z,43.15
2022-10-27T11:21:14.410Z,35.88
2022-10-27T11:23:52.966Z,39.35
2022-10-27T11:26:33.185Z,40.97
2022-10-27T11:29:31.604Z,39.95
2022-10-27T11:32:20.879Z,41.30
2022-10-27T11:35:14.264Z,35.65
2022-10-27T11:37:51.471Z,35.20
2022-10-27T11:40:41.382Z,39.88
2022-10-27T11:43:19.153Z,35.60
2022-10-27T11:46:04.307Z,33.78
2022-10-27T11:49:01.341Z,38.45
2022-10-27T11:51:44.213Z,38.83
2022-10-27T11:54:17.020Z,45.67
2022-10-27T11:57:16.280Z,33.33
2022-10-27T12:00:15.171Z,64.43
2022-10-27T12:06:24.390Z,37.55
2022-10-27T12:08:58.983Z,34.22
2022-10-27T12:12:15.279Z,31.30
2022-10-27T12:15:00.860Z,31.95
2022-10-27T12:17:55.548Z,33.95
2022-10-27T12:20:49.133Z,36.90
2022-10-27T12:23:24.021Z,44.88
2022-10-27T12:26:07.070Z,39.40
2022-10-27T12:28:39.141Z,32.63
2022-10-27T12:31:16.605Z,31.23
2022-10-27T12:33:57.313Z,28.95
2022-10-27T12:39:32.066Z,30.85
2022-10-27T12:42:11.582Z,32.42
2022-10-27T12:45:01.183Z,38.30
2022-10-27T12:47:48.139Z,162.80
2022-10-27T12:51:01.601Z,33.95
2022-10-27T12:53:55.615Z,34.42
2022-10-27T12:56:33.781Z,29.15
2022-10-27T12:59:30.895Z,33.55
2022-10-27T13:02:14.150Z,29.33
2022-10-27T13:05:07.109Z,27.17
2022-10-27T13:08:09.270Z,26.38
2022-10-27T13:10:56.239Z,32.28
2022-10-27T13:13:28.125Z,28.30
2022-10-27T13:16:17.828Z,27.85
2022-10-27T13:19:04.446Z,25.90
2022-10-27T13:21:50.144Z,31.65
2022-10-27T13:24:44.742Z,30.40
2022-10-27T13:27:26.066Z,27.27
2022-10-27T13:30:13.605Z,25.98
2022-10-27T13:32:48.564Z,31.67
2022-10-27T13:35:27.146Z,26.02
2022-10-27T13:38:18.800Z,28.33
2022-10-27T13:40:52.907Z,30.85
2022-10-27T13:43:24.773Z,27.90
2022-10-27T13:45:56.750Z,31.83
2022-10-27T13:48:28.638Z,26.55
2022-10-27T13:51:48.414Z,24.02
2022-10-27T13:54:59.130Z,24.85
2022-10-27T13:58:04.307Z,27.63
2022-10-27T14:01:12.641Z,22.13
2022-10-27T14:04:10.955Z,18.50
2022-10-27T14:06:45.251Z,20.60
2022-10-27T14:09:25.368Z,17.13
2022-10-27T14:12:01.196Z,16.25
2022-10-27T14:14:36.357Z,17.52
2022-10-27T14:17:18.576Z,14.05
2022-10-27T14:20:15.758Z,21.85
2022-10-27T14:22:52.897Z,17.50
2022-10-27T14:25:30.633Z,18.20
2022-10-27T14:28:24.053Z,16.42
2022-10-27T14:31:20.002Z,30.58
2022-10-27T14:33:53.508Z,17.25
2022-10-27T14:36:31.929Z,15.18
2022-10-27T14:39:12.461Z,14.23
2022-10-27T14:41:48.898Z,14.77
2022-10-27T14:44:27.442Z,21.48
2022-10-27T14:47:04.174Z,38.83
2022-10-27T14:49:49.100Z,19.13
2022-10-27T14:52:31.083Z,13.88
2022-10-27T14:55:03.708Z,13.90
2022-10-27T14:57:37.808Z,18.70
2022-10-27T15:00:28.442Z,28.00
2022-10-27T15:03:11.131Z,14.45
2022-10-27T15:05:47.379Z,12.15
2022-10-27T15:08:22.136Z,19.23
2022-10-27T15:10:59.637Z,9.13
2022-10-27T15:13:32.094Z,12.88
2022-10-27T15:16:11.512Z,14.70
2022-10-27T15:18:44.146Z,11.70
2022-10-27T15:21:22.568Z,12.50
2022-10-27T15:24:01.829Z,6.65
2022-10-27T15:26:34.649Z,9.18
2022-10-27T15:29:15.790Z,10.10
2022-10-27T15:31:56.790Z,15.65
2022-10-27T15:34:36.349Z,5.47
2022-10-27T15:37:15.347Z,13.82
2022-10-27T15:39:47.196Z,7.55
2022-10-27T15:42:24.389Z,8.27
2022-10-27T15:45:22.017Z,11.63
2022-10-27T15:47:53.941Z,12.15
2022-10-27T15:50:28.453Z,10.15
2022-10-27T15:53:18.447Z,10.57
2022-10-27T15:56:27.782Z,16.57
2022-10-27T15:59:22.250Z,10.35
2022-10-27T16:02:05.872Z,9.35
2022-10-27T16:04:39.736Z,9.68
2022-10-27T16:07:14.652Z,8.68
2022-10-27T16:09:48.266Z,11.45
2022-10-27T16:12:34.760Z,13.13
2022-10-27T16:15:16.373Z,18.45
2022-10-27T16:17:55.078Z,20.55
2022-10-27T16:20:34.007Z,13.43
2022-10-27T16:23:13.696Z,19.95
2022-10-27T16:25:48.953Z,12.43
2022-10-27T16:28:26.053Z,16.33
2022-10-27T16:30:58.096Z,15.65
2022-10-27T16:33:30.100Z,15.52
2022-10-27T16:36:01.992Z,15.20
2022-10-27T16:38:36.681Z,16.65
2022-10-27T16:41:19.629Z,21.67
2022-10-27T16:43:51.930Z,22.73
2022-10-27T16:46:23.982Z,22.30
2022-10-27T16:48:55.907Z,24.90
2022-10-27T16:51:27.879Z,23.50
2022-10-27T16:54:00.084Z,22.05
2022-10-27T16:56:33.883Z,25.42
2022-10-27T16:59:05.860Z,19.20
2022-10-27T17:01:37.921Z,23.77
2022-10-27T17:04:10.078Z,25.77
2022-10-27T17:06:41.948Z,25.85
2022-10-27T17:09:14.944Z,24.20
2022-10-27T17:11:47.177Z,28.98
2022-10-27T17:14:19.096Z,25.45
2022-10-27T17:16:51.070Z,20.35
2022-10-27T17:19:23.289Z,28.05
2022-10-27T17:21:55.836Z,24.20
2022-10-27T17:24:27.829Z,25.38
2022-10-27T17:26:59.686Z,24.27
2022-10-27T17:29:35.001Z,22.48
2022-10-27T17:32:07.075Z,24.20
2022-10-27T17:34:38.978Z,25.30
2022-10-27T17:37:11.964Z,26.95
2022-10-27T17:39:43.853Z,25.70
2022-10-27T17:42:16.751Z,24.77
2022-10-27T17:44:48.706Z,25.60
2022-10-27T17:47:20.791Z,22.40
2022-10-27T17:49:52.692Z,29.20
2022-10-27T17:52:24.795Z,28.80
2022-10-27T17:54:56.770Z,31.85
2022-10-27T17:57:28.828Z,24.60
2022-10-27T18:00:00.910Z,29.98
2022-10-27T18:02:32.872Z,29.75
2022-10-27T18:05:05.027Z,33.90
2022-10-27T18:07:36.937Z,34.60
2022-10-27T18:10:09.315Z,30.45
2022-10-27T18:12:41.222Z,32.25
2022-10-27T18:18:05.912Z,25.00
2022-10-27T18:20:37.730Z,27.15
2022-10-27T18:23:09.742Z,35.58
2022-10-27T18:25:41.659Z,29.65
2022-10-27T18:28:13.550Z,28.50
2022-10-27T18:30:45.547Z,29.02
2022-10-27T18:33:17.608Z,30.92
2022-10-27T18:35:49.551Z,35.03
2022-10-27T18:38:21.568Z,24.90
2022-10-27T18:40:57.541Z,40.15
2022-10-27T18:43:29.449Z,29.23
2022-10-27T18:46:03.407Z,31.33
2022-10-27T18:48:36.249Z,26.58
2022-10-27T18:51:13.074Z,25.52
2022-10-27T18:53:46.024Z,27.92
2022-10-27T18:56:18.072Z,29.95
2022-10-27T18:59:01.452Z,27.48
2022-10-27T19:01:34.568Z,27.65
2022-10-27T19:04:08.340Z,24.95
2022-10-27T19:06:40.376Z,28.92
2022-10-27T19:09:13.061Z,28.88
2022-10-27T19:11:45.062Z,27.35
2022-10-27T19:14:17.059Z,29.15
2022-10-27T19:16:53.094Z,28.13
2022-10-27T19:19:28.816Z,24.98
2022-10-27T19:22:00.726Z,24.33
2022-10-27T19:24:33.638Z,23.58
2022-10-27T19:27:05.590Z,24.30
2022-10-27T19:29:37.625Z,29.45
2022-10-27T19:32:09.570Z,23.58
2022-10-27T19:34:44.064Z,19.80
2022-10-27T19:37:18.234Z,20.50
2022-10-27T19:39:50.098Z,21.77
2022-10-27T19:42:22.006Z,24.88
2022-10-27T19:44:53.957Z,19.70
2022-10-27T19:50:02.655Z,22.83
2022-10-27T19:52:34.677Z,18.40
2022-10-27T19:55:07.135Z,22.27
2022-10-27T19:57:39.438Z,19.23
2022-10-27T20:00:12.130Z,15.68
2022-10-27T20:02:44.162Z,16.13
2022-10-27T20:05:16.115Z,15.52
2022-10-27T20:07:47.996Z,17.60
2022-10-27T20:10:21.185Z,15.40
2022-10-27T20:12:53.311Z,19.65
2022-10-27T20:15:25.888Z,16.55
2022-10-27T20:17:57.802Z,18.08
2022-10-27T20:20:29.670Z,18.60
2022-10-27T20:23:01.601Z,16.92
2022-10-27T20:25:33.396Z,18.50
2022-10-27T20:28:05.424Z,20.52
2022-10-27T20:30:37.578Z,18.60
2022-10-27T20:33:09.490Z,17.63
2022-10-27T20:35:42.205Z,16.00
2022-10-27T20:38:14.255Z,18.50
2022-10-27T20:40:46.187Z,17.08
2022-10-27T20:43:18.141Z,19.15
2022-10-27T20:45:54.401Z,14.40
2022-10-27T20:48:26.557Z,14.18
2022-10-27T20:51:09.951Z,16.15
2022-10-27T20:53:41.910Z,18.55
2022-10-27T20:56:18.850Z,24.58
2022-10-27T20:58:51.489Z,15.70
2022-10-27T21:01:26.698Z,18.38
2022-10-27T21:04:01.302Z,18.63
2022-10-27T21:06:35.670Z,14.68
2022-10-27T21:09:10.710Z,17.80
2022-10-27T21:11:44.156Z,13.82
2022-10-27T21:14:16.657Z,16.42
2022-10-27T21:16:51.783Z,13.68
2022-10-27T21:19:24.134Z,21.65
2022-10-27T21:21:56.359Z,23.27
2022-10-27T21:24:28.153Z,14.30
2022-10-27T21:27:00.004Z,13.23
2022-10-27T21:29:32.943Z,13.38
2022-10-27T21:32:05.179Z,15.18
2022-10-27T21:34:37.069Z,19.15
2022-10-27T21:37:08.972Z,14.45
2022-10-27T21:39:40.804Z,14.65
2022-10-27T21:42:12.751Z,12.52
2022-10-27T21:44:44.683Z,14.18
2022-10-27T21:47:16.576Z,14.10
2022-10-27T21:49:48.615Z,11.60
2022-10-27T21:52:20.518Z,13.73
2022-10-27T21:54:52.486Z,19.60
2022-10-27T21:57:24.429Z,15.38
2022-10-27T21:59:56.267Z,13.32
2022-10-27T22:02:28.226Z,11.57
2022-10-27T22:05:00.337Z,12.00
2022-10-27T22:07:32.357Z,13.98
2022-10-27T22:10:04.506Z,13.43
2022-10-27T22:12:36.495Z,9.85
2022-10-27T22:15:09.036Z,13.13
2022-10-27T22:17:41.045Z,15.55
2022-10-27T22:20:12.962Z,12.20
2022-10-27T22:22:44.921Z,11.65
2022-10-27T22:25:16.806Z,8.63
2022-10-27T22:27:54.498Z,10.60
2022-10-27T22:30:26.502Z,9.15
2022-10-27T22:32:59.192Z,11.93
2022-10-27T22:35:32.757Z,10.15
2022-10-27T22:38:04.705Z,9.80
2022-10-27T22:40:36.574Z,14.07
2022-10-27T22:43:08.454Z,9.63
2022-10-27T22:45:40.520Z,8.30
2022-10-27T22:48:12.418Z,8.88
2022-10-27T22:50:44.292Z,10.38
2022-10-27T22:53:16.258Z,9.73
2022-10-27T22:55:48.165Z,7.65
2022-10-27T22:58:20.163Z,6.43
2022-10-27T23:00:54.993Z,7.88
2022-10-27T23:03:26.903Z,12.88
2022-10-27T23:05:59.050Z,9.10
2022-10-27T23:08:31.515Z,6.93
2022-10-27T23:11:06.150Z,6.75
2022-10-27T23:13:39.230Z,6.78
2022-10-27T23:16:11.120Z,6.60
2022-10-27T23:18:43.194Z,8.80
2022-10-27T23:21:16.699Z,9.43
2022-10-27T23:23:51.559Z,6.78
2022-10-27T23:26:26.121Z,5.45
2022-10-27T23:28:59.981Z,6.93
2022-10-27T23:31:32.680Z,8.73
2022-10-27T23:34:06.132Z,5.72
2022-10-27T23:36:39.352Z,6.40
2022-10-27T23:39:11.358Z,5.50
2022-10-27T23:41:43.141Z,9.55
2022-10-27T23:44:15.066Z,7.63
2022-10-27T23:46:47.011Z,10.63
2022-10-27T23:49:18.866Z,9.30
2022-10-27T23:51:50.750Z,9.68
2022-10-27T23:54:22.636Z,4.80
2022-10-27T23:56:54.503Z,8.00
2022-10-27T23:59:26.371Z,7.07
